National Weather Service Raw Text Product

Displaying AFOS PIL: TAFFOD Received: 2018-02-09 14:40 UTC


901 
FTUS43 KDMX 091440 AAA
TAFFOD
TAF AMD
KFOD 091440Z 0915/1012 02012KT P6SM SCT008 OVC070
     FM092200 02008KT P6SM BKN090
     FM100100 36007KT P6SM SCT040 OVC070=